createdAt,value
2023-01-19T00:00:32.208Z,29.50
2023-01-19T00:02:59.279Z,29.40
2023-01-19T00:05:26.244Z,28.30
2023-01-19T00:07:53.021Z,28.40
2023-01-19T00:10:19.737Z,26.30
2023-01-19T00:12:46.549Z,26.40
2023-01-19T00:15:13.062Z,27.30
2023-01-19T00:17:40.471Z,25.70
2023-01-19T00:20:08.896Z,28.40
2023-01-19T00:22:35.522Z,28.30
2023-01-19T00:25:02.994Z,27.90
2023-01-19T00:27:34.234Z,27.20
2023-01-19T00:30:01.588Z,29.60
2023-01-19T00:32:28.799Z,28.70
2023-01-19T00:34:55.588Z,28.10
2023-01-19T00:37:22.392Z,28.00
2023-01-19T00:39:49.238Z,27.60
2023-01-19T00:42:34.461Z,26.50
2023-01-19T00:45:01.018Z,27.00
2023-01-19T00:47:27.761Z,26.90
2023-01-19T00:49:54.350Z,26.90
2023-01-19T00:52:20.956Z,27.10
2023-01-19T00:54:47.557Z,28.70
2023-01-19T00:57:14.964Z,27.40
2023-01-19T00:59:41.948Z,26.80
2023-01-19T01:02:08.703Z,28.10
2023-01-19T01:04:35.622Z,28.30
2023-01-19T01:07:03.194Z,26.60
2023-01-19T01:09:30.302Z,26.90
2023-01-19T01:11:56.832Z,27.60
2023-01-19T01:14:23.879Z,27.40
2023-01-19T01:16:50.517Z,29.20
2023-01-19T01:19:17.090Z,27.10
2023-01-19T01:21:43.899Z,27.10
2023-01-19T01:24:10.579Z,26.60
2023-01-19T01:26:37.567Z,27.50
2023-01-19T01:29:05.344Z,26.50
2023-01-19T01:31:32.200Z,28.10
2023-01-19T01:33:58.782Z,25.50
2023-01-19T01:36:28.598Z,27.60
2023-01-19T01:38:55.722Z,27.50
2023-01-19T01:41:22.254Z,28.20
2023-01-19T01:43:57.694Z,27.40
2023-01-19T01:46:25.229Z,25.30
2023-01-19T01:48:56.608Z,26.30
2023-01-19T01:51:35.885Z,27.10
2023-01-19T01:54:21.236Z,27.10
2023-01-19T01:56:49.746Z,27.70
2023-01-19T01:59:28.882Z,25.30
2023-01-19T02:02:16.083Z,27.00
2023-01-19T02:04:48.634Z,26.20
2023-01-19T02:07:38.246Z,26.10
2023-01-19T02:10:23.654Z,26.60
2023-01-19T02:13:09.748Z,28.10
2023-01-19T02:15:36.287Z,27.30
2023-01-19T02:18:03.085Z,27.80
2023-01-19T02:20:29.942Z,28.10
2023-01-19T02:23:01.390Z,29.30
2023-01-19T02:25:28.768Z,28.70
2023-01-19T02:27:55.341Z,27.80
2023-01-19T02:30:23.572Z,28.50
2023-01-19T02:32:50.152Z,28.80
2023-01-19T02:35:17.472Z,28.30
2023-01-19T02:37:45.533Z,29.80
2023-01-19T02:40:13.892Z,30.10
2023-01-19T02:42:50.176Z,27.80
2023-01-19T02:45:21.354Z,27.70
2023-01-19T02:47:50.230Z,28.00
2023-01-19T02:50:35.583Z,27.50
2023-01-19T02:53:21.192Z,28.30
2023-01-19T02:55:53.773Z,29.30
2023-01-19T02:58:27.081Z,27.50
2023-01-19T03:01:13.481Z,27.30
2023-01-19T03:03:57.598Z,28.10
2023-01-19T03:06:36.219Z,27.90
2023-01-19T03:09:18.376Z,27.90
2023-01-19T03:11:50.137Z,28.80
2023-01-19T03:14:20.034Z,29.60
2023-01-19T03:16:50.482Z,30.70
2023-01-19T03:21:53.102Z,26.40
2023-01-19T03:24:19.724Z,27.30
2023-01-19T03:26:55.517Z,27.90
2023-01-19T03:29:22.049Z,27.10
2023-01-19T03:31:49.301Z,27.10
2023-01-19T03:34:15.934Z,28.30
2023-01-19T03:36:53.439Z,28.70
2023-01-19T03:39:24.490Z,29.70
2023-01-19T03:44:22.895Z,26.60
2023-01-19T03:46:50.137Z,26.80
2023-01-19T03:49:16.783Z,27.80
2023-01-19T03:51:43.670Z,28.20
2023-01-19T03:54:10.322Z,28.00
2023-01-19T03:56:36.903Z,26.80
2023-01-19T03:59:05.349Z,27.70
2023-01-19T04:01:32.394Z,28.60
2023-01-19T04:03:59.370Z,29.00
2023-01-19T04:06:26.398Z,27.80
2023-01-19T04:08:53.367Z,29.10
2023-01-19T04:11:20.147Z,29.30
2023-01-19T04:13:46.882Z,27.20
2023-01-19T04:16:13.672Z,26.00
2023-01-19T04:18:40.430Z,27.40
2023-01-19T04:21:07.403Z,27.80
2023-01-19T04:23:34.650Z,28.60
2023-01-19T04:26:02.598Z,28.20
2023-01-19T04:28:29.559Z,30.80
2023-01-19T04:30:56.363Z,28.30
2023-01-19T04:33:23.360Z,28.00
2023-01-19T04:35:52.262Z,30.90
2023-01-19T04:38:20.287Z,30.10
2023-01-19T04:40:48.410Z,29.40
2023-01-19T04:43:14.922Z,29.00
2023-01-19T04:45:44.207Z,30.40
2023-01-19T04:48:16.353Z,28.90
2023-01-19T04:51:01.466Z,29.40
2023-01-19T04:53:27.996Z,30.60
2023-01-19T04:55:54.850Z,32.00
2023-01-19T04:58:21.470Z,29.30
2023-01-19T05:00:48.572Z,29.50
2023-01-19T05:03:15.334Z,29.70
2023-01-19T05:05:42.050Z,29.70
2023-01-19T05:08:08.567Z,27.90
2023-01-19T05:10:36.040Z,28.60
2023-01-19T05:13:03.878Z,31.90
2023-01-19T05:15:30.756Z,28.90
2023-01-19T05:17:57.969Z,31.00
2023-01-19T05:20:24.643Z,28.60
2023-01-19T05:22:59.190Z,30.30
2023-01-19T05:25:25.971Z,29.70
2023-01-19T05:27:52.578Z,28.50
2023-01-19T05:30:19.096Z,28.10
2023-01-19T05:32:46.349Z,28.80
2023-01-19T05:35:13.055Z,29.00
2023-01-19T05:37:39.938Z,28.80
2023-01-19T05:40:10.374Z,28.60
2023-01-19T05:42:37.312Z,27.70
2023-01-19T05:45:04.668Z,31.30
2023-01-19T05:47:31.642Z,27.90
2023-01-19T05:49:58.674Z,28.50
2023-01-19T05:52:25.584Z,27.30
2023-01-19T05:54:54.097Z,27.00
2023-01-19T05:57:21.912Z,27.90
2023-01-19T05:59:48.794Z,25.80
2023-01-19T06:02:15.496Z,27.30
2023-01-19T08:11:12.448Z,22.40
2023-01-19T08:13:39.481Z,20.40
2023-01-19T08:16:06.450Z,21.50
2023-01-19T08:18:33.634Z,21.70
2023-01-19T08:21:00.623Z,20.50
2023-01-19T08:23:27.627Z,22.30
2023-01-19T08:25:54.322Z,20.70
2023-01-19T08:28:21.051Z,20.20
2023-01-19T08:30:53.375Z,20.20
2023-01-19T08:33:21.162Z,18.30
2023-01-19T08:35:49.376Z,17.40
2023-01-19T08:38:16.459Z,18.50
2023-01-19T08:40:43.907Z,17.70
2023-01-19T08:43:12.338Z,17.40
2023-01-19T08:45:45.904Z,17.70
2023-01-19T08:48:13.139Z,16.70
2023-01-19T08:50:40.058Z,17.60
2023-01-19T08:53:06.998Z,18.50
2023-01-19T08:55:35.033Z,15.60
2023-01-19T08:58:03.774Z,16.60
2023-01-19T09:00:33.839Z,16.30
2023-01-19T09:03:04.476Z,15.90
2023-01-19T09:05:36.675Z,16.10
2023-01-19T09:08:04.561Z,16.20
2023-01-19T09:10:35.449Z,16.70
2023-01-19T09:13:07.686Z,14.90
2023-01-19T09:15:36.899Z,16.00
2023-01-19T09:18:09.724Z,14.30
2023-01-19T09:20:38.478Z,14.70
2023-01-19T09:23:05.489Z,14.30
2023-01-19T09:25:32.342Z,15.90
2023-01-19T09:28:00.010Z,14.20
2023-01-19T09:30:27.198Z,15.30
2023-01-19T09:32:53.864Z,14.00
2023-01-19T09:35:21.059Z,14.50
2023-01-19T09:37:47.708Z,14.80
2023-01-19T09:40:15.879Z,13.70
2023-01-19T09:43:13.392Z,14.30
2023-01-19T09:45:49.060Z,13.10
2023-01-19T09:48:23.778Z,12.40
2023-01-19T09:50:50.569Z,12.90
2023-01-19T09:53:20.823Z,12.50
2023-01-19T09:55:47.519Z,13.20
2023-01-19T09:58:17.800Z,12.00
2023-01-19T10:00:51.115Z,13.70
2023-01-19T10:03:18.123Z,14.60
2023-01-19T10:05:53.682Z,14.90
2023-01-19T10:08:26.860Z,13.00
2023-01-19T10:10:56.598Z,13.90
2023-01-19T10:13:38.870Z,13.80
2023-01-19T10:16:45.109Z,13.90
2023-01-19T10:19:20.619Z,12.00
2023-01-19T10:21:47.198Z,11.70
2023-01-19T10:24:17.102Z,13.00
2023-01-19T10:26:47.004Z,13.50
2023-01-19T10:29:23.568Z,12.50
2023-01-19T10:31:52.335Z,12.70
2023-01-19T10:34:22.994Z,12.60
2023-01-19T10:37:02.077Z,13.00
2023-01-19T10:39:28.940Z,11.30
2023-01-19T10:41:55.688Z,12.20
2023-01-19T10:44:25.371Z,12.30
2023-01-19T10:46:53.835Z,11.70
2023-01-19T10:49:34.985Z,11.00
2023-01-19T10:52:01.853Z,11.10
2023-01-19T10:54:29.869Z,11.30
2023-01-19T10:56:58.155Z,10.70
2023-01-19T10:59:30.359Z,10.90
2023-01-19T11:02:11.032Z,10.60
2023-01-19T11:04:37.876Z,12.80
2023-01-19T11:07:19.953Z,10.70
2023-01-19T11:09:47.848Z,11.70
2023-01-19T11:12:23.694Z,11.90
2023-01-19T11:14:50.954Z,10.00
2023-01-19T11:17:24.914Z,11.70
2023-01-19T11:19:56.622Z,11.50
2023-01-19T11:22:26.505Z,14.40
2023-01-19T11:24:56.813Z,12.80
2023-01-19T11:27:23.449Z,12.50
2023-01-19T11:30:18.399Z,14.20
2023-01-19T11:32:45.809Z,13.90
2023-01-19T11:35:49.520Z,13.20
2023-01-19T11:38:19.241Z,13.60
2023-01-19T11:40:52.395Z,14.40
2023-01-19T11:43:20.919Z,14.40
2023-01-19T11:45:47.522Z,13.80
2023-01-19T11:48:35.558Z,13.70
2023-01-19T11:51:04.174Z,13.20
2023-01-19T11:53:33.935Z,14.80
2023-01-19T11:56:06.447Z,13.50
2023-01-19T11:58:42.512Z,14.50
2023-01-19T12:01:21.564Z,13.50
2023-01-19T12:03:54.950Z,14.00
2023-01-19T14:15:41.813Z,13.60
2023-01-19T14:18:21.951Z,12.50
2023-01-19T14:21:07.305Z,13.80
2023-01-19T14:23:44.522Z,13.30
2023-01-19T14:33:46.286Z,15.20
2023-01-19T14:36:17.909Z,16.80
2023-01-19T14:38:48.152Z,16.80
2023-01-19T14:41:23.619Z,14.20
2023-01-19T14:43:50.377Z,15.00
2023-01-19T14:46:18.661Z,13.10
2023-01-19T14:48:47.171Z,13.70
2023-01-19T14:51:17.869Z,12.80
2023-01-19T14:53:52.945Z,13.60
2023-01-19T14:56:27.861Z,12.60
2023-01-19T14:58:58.591Z,13.10
2023-01-19T15:01:28.559Z,12.60
2023-01-19T15:03:58.307Z,11.90
2023-01-19T15:06:25.721Z,12.00
2023-01-19T15:08:53.614Z,12.80
2023-01-19T15:11:29.625Z,12.00
2023-01-19T15:13:56.464Z,11.70
2023-01-19T15:16:23.575Z,11.90
2023-01-19T15:18:50.511Z,12.80
2023-01-19T15:21:23.282Z,12.30
2023-01-19T15:23:50.078Z,13.10
2023-01-19T15:26:20.961Z,12.10
2023-01-19T15:28:49.369Z,11.80
2023-01-19T15:31:17.826Z,11.50
2023-01-19T15:33:44.636Z,11.70
2023-01-19T15:36:18.590Z,13.50
2023-01-19T15:38:46.178Z,12.60
2023-01-19T15:41:23.583Z,11.10
2023-01-19T15:43:50.731Z,12.50
2023-01-19T15:46:19.061Z,12.40
2023-01-19T15:48:45.793Z,12.20
2023-01-19T15:51:18.037Z,12.40
2023-01-19T15:53:44.910Z,11.60
2023-01-19T15:56:20.202Z,12.30
2023-01-19T15:58:47.047Z,13.70
2023-01-19T16:01:15.156Z,14.00
2023-01-19T16:03:42.842Z,18.60
2023-01-19T16:06:09.756Z,17.10
2023-01-19T16:08:37.333Z,14.60
2023-01-19T16:11:08.556Z,15.10
2023-01-19T16:16:08.984Z,15.50
2023-01-19T16:18:35.742Z,12.40
2023-01-19T16:21:02.496Z,13.30
2023-01-19T16:23:29.486Z,14.60
2023-01-19T16:26:10.655Z,14.40
2023-01-19T16:28:37.795Z,14.00
2023-01-19T16:31:04.815Z,13.80
2023-01-19T16:33:31.551Z,15.10
2023-01-19T16:35:58.370Z,14.10
2023-01-19T16:38:25.228Z,13.10
2023-01-19T16:40:52.054Z,13.40
2023-01-19T16:43:18.808Z,12.40
2023-01-19T16:45:59.967Z,12.70
2023-01-19T16:48:27.254Z,13.90
2023-01-19T16:51:04.850Z,15.00
2023-01-19T16:53:32.683Z,12.80
2023-01-19T16:55:59.489Z,14.30
2023-01-19T16:58:26.371Z,13.50
2023-01-19T17:00:53.226Z,13.20
2023-01-19T17:03:20.203Z,13.90
2023-01-19T17:05:51.705Z,14.40
2023-01-19T17:08:20.114Z,14.70
2023-01-19T17:10:47.727Z,15.00
2023-01-19T17:13:14.691Z,15.50
2023-01-19T17:15:41.683Z,13.20
2023-01-19T17:18:10.330Z,14.60
2023-01-19T17:20:37.554Z,15.00
2023-01-19T17:23:04.540Z,13.70
2023-01-19T17:25:31.435Z,15.40
2023-01-19T17:28:04.044Z,16.60
2023-01-19T17:30:31.084Z,15.70
2023-01-19T17:32:58.015Z,16.60
2023-01-19T17:35:24.971Z,15.80
2023-01-19T17:37:55.096Z,15.00
2023-01-19T17:40:21.864Z,16.40
2023-01-19T17:42:48.865Z,16.80
2023-01-19T17:45:15.663Z,14.90
2023-01-19T17:47:42.379Z,16.40
2023-01-19T17:50:09.932Z,17.60
2023-01-19T17:52:38.107Z,17.10
2023-01-19T17:55:05.278Z,16.70
2023-01-19T17:57:32.188Z,16.70
2023-01-19T17:59:58.910Z,17.20
2023-01-19T18:02:26.455Z,17.20
2023-01-19T18:04:53.302Z,18.60
2023-01-19T18:07:20.263Z,17.10
2023-01-19T18:09:47.104Z,17.30
2023-01-19T18:12:13.986Z,18.20
2023-01-19T18:14:41.300Z,17.10
2023-01-19T18:17:08.229Z,18.40
2023-01-19T18:19:35.167Z,16.20
2023-01-19T18:22:02.163Z,17.00
2023-01-19T18:24:29.620Z,16.90
2023-01-19T18:26:56.494Z,17.70
2023-01-19T18:29:23.278Z,16.60
2023-01-19T18:31:50.220Z,16.90
2023-01-19T18:34:17.042Z,16.00
2023-01-19T18:36:44.584Z,16.50
2023-01-19T18:39:11.302Z,17.40
2023-01-19T18:41:41.880Z,17.10
2023-01-19T18:44:09.738Z,17.50
2023-01-19T18:46:38.155Z,16.20
2023-01-19T18:49:05.635Z,17.30
2023-01-19T18:51:34.465Z,14.90
2023-01-19T18:54:01.208Z,17.10
2023-01-19T18:56:28.351Z,17.10
2023-01-19T18:58:55.094Z,17.20
2023-01-19T19:01:32.503Z,16.00
2023-01-19T19:04:00.014Z,16.90
2023-01-19T19:06:27.582Z,17.40
2023-01-19T19:08:55.968Z,17.60
2023-01-19T19:11:23.685Z,17.20
2023-01-19T19:13:55.419Z,17.10
2023-01-19T19:16:22.273Z,18.30
2023-01-19T19:18:52.320Z,19.20
2023-01-19T19:21:20.220Z,19.20
2023-01-19T19:23:52.275Z,17.80
2023-01-19T19:26:19.428Z,17.90
2023-01-19T19:28:47.655Z,18.10
2023-01-19T19:31:17.008Z,17.00
2023-01-19T19:33:43.993Z,17.40
2023-01-19T19:36:10.810Z,16.60
2023-01-19T19:38:38.051Z,18.00
2023-01-19T19:41:05.971Z,18.10
2023-01-19T19:43:33.061Z,17.80
2023-01-19T19:46:04.448Z,18.90
2023-01-19T19:48:31.304Z,19.10
2023-01-19T19:51:17.011Z,20.80
2023-01-19T19:53:44.801Z,20.90
2023-01-19T19:56:13.440Z,22.70
2023-01-19T19:58:40.508Z,21.70
2023-01-19T20:01:15.589Z,19.90
2023-01-19T20:03:42.605Z,20.10
2023-01-19T20:06:11.492Z,20.50
2023-01-19T20:08:38.275Z,18.50
2023-01-19T20:11:15.663Z,20.20
2023-01-19T20:13:43.297Z,20.10
2023-01-19T20:16:12.477Z,18.50
2023-01-19T20:18:40.860Z,20.00
2023-01-19T20:21:24.117Z,20.10
2023-01-19T20:23:51.067Z,20.70
2023-01-19T20:26:19.062Z,21.10
2023-01-19T20:28:45.900Z,19.60
2023-01-19T20:31:19.177Z,21.30
2023-01-19T20:33:46.946Z,21.10
2023-01-19T20:36:14.115Z,22.20
2023-01-19T20:38:44.126Z,22.10
2023-01-19T20:41:12.827Z,21.20
2023-01-19T20:43:39.820Z,21.30
2023-01-19T20:46:06.796Z,22.40
2023-01-19T20:48:33.852Z,22.90
2023-01-19T20:51:01.556Z,22.90
2023-01-19T20:53:28.441Z,23.90
2023-01-19T20:55:55.212Z,21.00
2023-01-19T20:58:22.200Z,21.50
2023-01-19T21:00:49.427Z,22.70
2023-01-19T21:03:17.708Z,23.30
2023-01-19T21:05:47.705Z,24.00
2023-01-19T21:08:15.554Z,21.70
2023-01-19T21:10:42.941Z,22.60
2023-01-19T21:13:09.767Z,25.90
2023-01-19T21:15:37.055Z,22.50
2023-01-19T21:18:04.076Z,25.00
2023-01-19T21:20:30.918Z,24.60
2023-01-19T21:22:59.173Z,23.60
2023-01-19T21:25:26.206Z,22.40
2023-01-19T21:27:53.193Z,23.00
2023-01-19T21:30:19.985Z,21.90
2023-01-19T21:32:46.861Z,22.40
2023-01-19T21:35:14.222Z,22.90
2023-01-19T21:37:41.554Z,23.40
2023-01-19T21:40:09.541Z,23.60
2023-01-19T21:42:36.287Z,24.00
2023-01-19T21:45:03.242Z,25.70
2023-01-19T21:47:30.265Z,23.00
2023-01-19T21:49:57.138Z,22.10
2023-01-19T21:52:23.862Z,26.00
2023-01-19T21:54:50.828Z,23.70
2023-01-19T21:57:19.891Z,25.00
2023-01-19T21:59:46.658Z,23.10
2023-01-19T22:02:13.645Z,24.40
2023-01-19T22:04:40.820Z,22.70
2023-01-19T22:07:07.516Z,23.30
2023-01-19T22:09:35.283Z,24.30
2023-01-19T22:12:02.790Z,25.90
2023-01-19T22:14:29.768Z,25.20
2023-01-19T22:16:56.648Z,26.00
2023-01-19T22:19:23.567Z,23.10
2023-01-19T22:21:50.367Z,26.10
2023-01-19T22:24:17.308Z,25.40
2023-01-19T22:26:44.168Z,25.10
2023-01-19T22:29:11.507Z,26.40
2023-01-19T22:31:38.960Z,28.60
2023-01-19T22:34:10.362Z,27.30
2023-01-19T22:36:37.668Z,25.80
2023-01-19T22:39:06.634Z,26.50
2023-01-19T22:41:38.021Z,28.10
2023-01-19T22:44:07.287Z,26.10
2023-01-19T22:46:35.402Z,25.00
2023-01-19T22:49:02.344Z,26.70
2023-01-19T22:51:29.919Z,24.00
2023-01-19T22:53:56.769Z,24.00
2023-01-19T22:56:25.111Z,24.40
2023-01-19T22:58:52.163Z,24.40
2023-01-19T23:01:20.947Z,25.20
2023-01-19T23:03:48.118Z,22.40
2023-01-19T23:06:17.510Z,24.20
2023-01-19T23:08:44.452Z,25.50
2023-01-19T23:11:15.289Z,23.40
2023-01-19T23:13:42.259Z,24.70
2023-01-19T23:16:09.388Z,25.60
2023-01-19T23:18:36.329Z,25.10
2023-01-19T23:21:04.295Z,26.90
2023-01-19T23:23:31.649Z,24.50
2023-01-19T23:26:06.207Z,25.80
2023-01-19T23:28:34.250Z,27.20
2023-01-19T23:31:01.279Z,25.70
2023-01-19T23:33:28.188Z,26.50
2023-01-19T23:35:55.702Z,25.00
2023-01-19T23:38:22.738Z,27.60
2023-01-19T23:40:49.670Z,25.90
2023-01-19T23:43:16.432Z,26.30
2023-01-19T23:45:43.151Z,26.20
2023-01-19T23:48:10.304Z,25.70
2023-01-19T23:50:40.122Z,25.70
2023-01-19T23:53:07.273Z,26.10
2023-01-19T23:55:34.110Z,24.20
2023-01-19T23:58:00.941Z,26.20
